Huntsville Municipal Airport Huntsville US
ICAO: KUTS
IATA: UTS
Category: Medium
Scheduled Services: No

Elevation: 363 ft
TransAlt. 18000 ft.

Airport Communications:
ASOS:119.425
HOUSTON CNTR:134.8
MONTGOMERY CO RDO:122.3
CTAF/UNICOM:122.8

KUTS Zoom In..

If you have problems with the map follow the link
https://www.worldairports.se/pages/airport.php?
ICAO=KUTS

Runways:

(A) RW 18 length 5005 ft width 100 ft
---- / hdg 180

(B) RW 36 length 5005 ft width 100 ft
---- / hdg 360

Location; KUTS
Day. 25 / Time. 08.53 Zulu
* Altimeter: 30.14
* Temperature: 05° c. 41°f.
* Wind from: 000° Speed 00 kn.
Dewpoint: 02° c.
Visibility: 10 Statute Miles.
Clouds: Clear (automated report).

KUTS 250853Z AUTO 00000KT 10SM CLR 05/02 A3014 RMK AO2 SLP203 T00500017 56007


Wind - Calm.

 
 
jpsmedia worldairports.se 2020   terms of use